sensor_id;sensor_type;location;lat;lon;timestamp;P1;durP1;ratioP1;P2;durP2;ratioP2
15528;SDS011;7866;52.280;9.500;2023-02-28T00:00:46;1.97;;;1.80;;
15528;SDS011;7866;52.280;9.500;2023-02-28T00:05:48;1.87;;;1.77;;
15528;SDS011;7866;52.280;9.500;2023-02-28T00:10:50;1.93;;;1.83;;
15528;SDS011;7866;52.280;9.500;2023-02-28T00:16:03;1.80;;;1.70;;
15528;SDS011;7866;52.280;9.500;2023-02-28T00:21:05;2.73;;;1.80;;
15528;SDS011;7866;52.280;9.500;2023-02-28T00:26:08;2.23;;;1.93;;
15528;SDS011;7866;52.280;9.500;2023-02-28T00:31:11;1.90;;;1.80;;
15528;SDS011;7866;52.280;9.500;2023-02-28T00:36:12;1.97;;;1.60;;
15528;SDS011;7866;52.280;9.500;2023-02-28T00:41:14;1.63;;;1.20;;
15528;SDS011;7866;52.280;9.500;2023-02-28T00:46:17;5.63;;;1.40;;
15528;SDS011;7866;52.280;9.500;2023-02-28T00:51:19;1.00;;;1.00;;
15528;SDS011;7866;52.280;9.500;2023-02-28T00:56:20;1.33;;;1.20;;
15528;SDS011;7866;52.280;9.500;2023-02-28T01:01:23;1.10;;;1.00;;
15528;SDS011;7866;52.280;9.500;2023-02-28T01:06:25;0.90;;;0.90;;
15528;SDS011;7866;52.280;9.500;2023-02-28T01:11:27;0.90;;;0.90;;
15528;SDS011;7866;52.280;9.500;2023-02-28T01:16:30;1.03;;;0.80;;
15528;SDS011;7866;52.280;9.500;2023-02-28T01:21:32;1.07;;;0.70;;
15528;SDS011;7866;52.280;9.500;2023-02-28T01:26:35;0.87;;;0.87;;
15528;SDS011;7866;52.280;9.500;2023-02-28T01:31:38;1.00;;;1.00;;
15528;SDS011;7866;52.280;9.500;2023-02-28T01:36:39;0.83;;;0.83;;
15528;SDS011;7866;52.280;9.500;2023-02-28T01:41:41;0.70;;;0.70;;
15528;SDS011;7866;52.280;9.500;2023-02-28T01:46:44;1.33;;;0.70;;
15528;SDS011;7866;52.280;9.500;2023-02-28T01:51:46;0.80;;;0.80;;
15528;SDS011;7866;52.280;9.500;2023-02-28T01:56:52;0.90;;;0.87;;
15528;SDS011;7866;52.280;9.500;2023-02-28T02:01:59;0.60;;;0.60;;
15528;SDS011;7866;52.280;9.500;2023-02-28T02:07:01;0.90;;;0.90;;
15528;SDS011;7866;52.280;9.500;2023-02-28T02:12:06;0.70;;;0.70;;
15528;SDS011;7866;52.280;9.500;2023-02-28T02:17:18;2.40;;;0.60;;
15528;SDS011;7866;52.280;9.500;2023-02-28T02:22:32;0.70;;;0.70;;
15528;SDS011;7866;52.280;9.500;2023-02-28T02:27:57;0.80;;;0.80;;
15528;SDS011;7866;52.280;9.500;2023-02-28T02:33:11;0.80;;;0.80;;
15528;SDS011;7866;52.280;9.500;2023-02-28T02:38:31;1.23;;;1.13;;
15528;SDS011;7866;52.280;9.500;2023-02-28T02:43:37;0.90;;;0.90;;
15528;SDS011;7866;52.280;9.500;2023-02-28T02:48:45;3.17;;;0.93;;
15528;SDS011;7866;52.280;9.500;2023-02-28T02:53:50;0.80;;;0.80;;
15528;SDS011;7866;52.280;9.500;2023-02-28T02:58:57;1.50;;;1.10;;
15528;SDS011;7866;52.280;9.500;2023-02-28T03:04:09;0.83;;;0.83;;
15528;SDS011;7866;52.280;9.500;2023-02-28T03:09:16;0.80;;;0.80;;
15528;SDS011;7866;52.280;9.500;2023-02-28T03:19:47;0.90;;;0.90;;
15528;SDS011;7866;52.280;9.500;2023-02-28T03:25:00;1.03;;;0.90;;
15528;SDS011;7866;52.280;9.500;2023-02-28T03:30:09;0.83;;;0.80;;
15528;SDS011;7866;52.280;9.500;2023-02-28T03:35:16;1.20;;;1.10;;
15528;SDS011;7866;52.280;9.500;2023-02-28T03:40:25;1.10;;;1.10;;
15528;SDS011;7866;52.280;9.500;2023-02-28T03:45:30;0.77;;;0.77;;
15528;SDS011;7866;52.280;9.500;2023-02-28T03:50:37;0.87;;;0.70;;
15528;SDS011;7866;52.280;9.500;2023-02-28T03:55:42;1.50;;;0.90;;
15528;SDS011;7866;52.280;9.500;2023-02-28T04:00:49;0.60;;;0.60;;
15528;SDS011;7866;52.280;9.500;2023-02-28T04:05:56;0.80;;;0.80;;
15528;SDS011;7866;52.280;9.500;2023-02-28T04:11:01;1.13;;;1.03;;
15528;SDS011;7866;52.280;9.500;2023-02-28T04:16:07;2.00;;;1.00;;
15528;SDS011;7866;52.280;9.500;2023-02-28T04:21:12;1.10;;;1.10;;
15528;SDS011;7866;52.280;9.500;2023-02-28T04:26:15;0.83;;;0.83;;
15528;SDS011;7866;52.280;9.500;2023-02-28T04:31:16;0.87;;;0.83;;
15528;SDS011;7866;52.280;9.500;2023-02-28T04:36:18;1.37;;;1.17;;
15528;SDS011;7866;52.280;9.500;2023-02-28T04:41:21;0.77;;;0.77;;
15528;SDS011;7866;52.280;9.500;2023-02-28T04:46:23;1.30;;;1.10;;
15528;SDS011;7866;52.280;9.500;2023-02-28T04:51:25;1.10;;;1.10;;
15528;SDS011;7866;52.280;9.500;2023-02-28T04:56:28;1.47;;;0.83;;
15528;SDS011;7866;52.280;9.500;2023-02-28T05:01:30;1.63;;;1.20;;
15528;SDS011;7866;52.280;9.500;2023-02-28T05:06:33;1.73;;;1.10;;
15528;SDS011;7866;52.280;9.500;2023-02-28T05:11:36;1.00;;;1.00;;
15528;SDS011;7866;52.280;9.500;2023-02-28T05:16:39;1.30;;;1.20;;
15528;SDS011;7866;52.280;9.500;2023-02-28T05:21:41;1.10;;;1.10;;
15528;SDS011;7866;52.280;9.500;2023-02-28T05:26:52;3.13;;;1.30;;
15528;SDS011;7866;52.280;9.500;2023-02-28T05:31:55;1.13;;;1.10;;
15528;SDS011;7866;52.280;9.500;2023-02-28T05:36:57;1.30;;;1.30;;
15528;SDS011;7866;52.280;9.500;2023-02-28T05:42:00;1.30;;;1.20;;
15528;SDS011;7866;52.280;9.500;2023-02-28T05:47:01;1.37;;;1.37;;
15528;SDS011;7866;52.280;9.500;2023-02-28T05:52:03;1.13;;;1.13;;
15528;SDS011;7866;52.280;9.500;2023-02-28T05:57:06;2.93;;;1.37;;
15528;SDS011;7866;52.280;9.500;2023-02-28T06:02:08;2.47;;;1.40;;
15528;SDS011;7866;52.280;9.500;2023-02-28T06:07:14;1.83;;;1.50;;
15528;SDS011;7866;52.280;9.500;2023-02-28T06:12:19;1.90;;;1.80;;
15528;SDS011;7866;52.280;9.500;2023-02-28T06:17:20;3.33;;;1.67;;
15528;SDS011;7866;52.280;9.500;2023-02-28T06:22:22;1.43;;;1.33;;
15528;SDS011;7866;52.280;9.500;2023-02-28T06:27:25;1.53;;;1.43;;
15528;SDS011;7866;52.280;9.500;2023-02-28T06:32:27;1.40;;;1.30;;
15528;SDS011;7866;52.280;9.500;2023-02-28T06:37:30;1.60;;;1.27;;
15528;SDS011;7866;52.280;9.500;2023-02-28T06:42:33;2.80;;;1.63;;
15528;SDS011;7866;52.280;9.500;2023-02-28T06:47:34;1.60;;;1.50;;
15528;SDS011;7866;52.280;9.500;2023-02-28T06:52:36;1.93;;;1.70;;
15528;SDS011;7866;52.280;9.500;2023-02-28T06:57:39;2.10;;;1.90;;
15528;SDS011;7866;52.280;9.500;2023-02-28T07:02:41;2.47;;;2.23;;
15528;SDS011;7866;52.280;9.500;2023-02-28T07:07:42;4.23;;;1.80;;
15528;SDS011;7866;52.280;9.500;2023-02-28T07:12:48;2.90;;;1.60;;
15528;SDS011;7866;52.280;9.500;2023-02-28T07:17:49;2.20;;;1.93;;
15528;SDS011;7866;52.280;9.500;2023-02-28T07:22:51;2.17;;;1.80;;
15528;SDS011;7866;52.280;9.500;2023-02-28T07:27:57;2.17;;;1.97;;
15528;SDS011;7866;52.280;9.500;2023-02-28T07:33:00;2.90;;;1.70;;
15528;SDS011;7866;52.280;9.500;2023-02-28T07:38:02;1.90;;;1.80;;
15528;SDS011;7866;52.280;9.500;2023-02-28T07:43:05;2.50;;;2.00;;
15528;SDS011;7866;52.280;9.500;2023-02-28T07:48:07;1.97;;;1.77;;
15528;SDS011;7866;52.280;9.500;2023-02-28T07:53:10;2.33;;;2.13;;
15528;SDS011;7866;52.280;9.500;2023-02-28T07:58:12;2.30;;;2.10;;
15528;SDS011;7866;52.280;9.500;2023-02-28T08:03:14;2.77;;;2.20;;
15528;SDS011;7866;52.280;9.500;2023-02-28T08:08:19;3.67;;;2.47;;
15528;SDS011;7866;52.280;9.500;2023-02-28T08:13:22;3.50;;;2.80;;
15528;SDS011;7866;52.280;9.500;2023-02-28T08:18:24;4.10;;;2.90;;
15528;SDS011;7866;52.280;9.500;2023-02-28T08:23:25;3.07;;;2.77;;
15528;SDS011;7866;52.280;9.500;2023-02-28T08:28:28;3.83;;;3.30;;
15528;SDS011;7866;52.280;9.500;2023-02-28T08:33:30;4.77;;;3.50;;
15528;SDS011;7866;52.280;9.500;2023-02-28T08:38:31;4.60;;;3.20;;
15528;SDS011;7866;52.280;9.500;2023-02-28T08:43:35;3.70;;;3.40;;
15528;SDS011;7866;52.280;9.500;2023-02-28T08:48:37;3.87;;;3.17;;
15528;SDS011;7866;52.280;9.500;2023-02-28T08:53:39;3.97;;;3.47;;
15528;SDS011;7866;52.280;9.500;2023-02-28T08:58:42;4.17;;;3.40;;
15528;SDS011;7866;52.280;9.500;2023-02-28T09:03:47;7.63;;;4.17;;
15528;SDS011;7866;52.280;9.500;2023-02-28T09:08:49;5.20;;;3.93;;
15528;SDS011;7866;52.280;9.500;2023-02-28T09:13:53;4.13;;;3.40;;
15528;SDS011;7866;52.280;9.500;2023-02-28T09:18:55;4.30;;;3.70;;
15528;SDS011;7866;52.280;9.500;2023-02-28T09:23:57;3.60;;;3.30;;
15528;SDS011;7866;52.280;9.500;2023-02-28T09:29:00;5.73;;;3.80;;
15528;SDS011;7866;52.280;9.500;2023-02-28T09:34:03;5.77;;;3.80;;
15528;SDS011;7866;52.280;9.500;2023-02-28T09:39:05;5.37;;;3.60;;
15528;SDS011;7866;52.280;9.500;2023-02-28T09:44:09;4.83;;;3.40;;
15528;SDS011;7866;52.280;9.500;2023-02-28T09:49:22;3.60;;;3.30;;
15528;SDS011;7866;52.280;9.500;2023-02-28T09:54:28;3.47;;;3.00;;
15528;SDS011;7866;52.280;9.500;2023-02-28T09:59:44;3.47;;;3.17;;
15528;SDS011;7866;52.280;9.500;2023-02-28T10:04:54;4.03;;;3.13;;
15528;SDS011;7866;52.280;9.500;2023-02-28T10:09:59;3.30;;;3.00;;
15528;SDS011;7866;52.280;9.500;2023-02-28T10:15:08;3.20;;;2.83;;
15528;SDS011;7866;52.280;9.500;2023-02-28T10:20:17;2.80;;;2.60;;
15528;SDS011;7866;52.280;9.500;2023-02-28T10:25:29;4.03;;;3.00;;
15528;SDS011;7866;52.280;9.500;2023-02-28T10:30:32;3.83;;;2.97;;
15528;SDS011;7866;52.280;9.500;2023-02-28T10:35:34;4.53;;;2.77;;
15528;SDS011;7866;52.280;9.500;2023-02-28T10:40:36;2.70;;;2.50;;
15528;SDS011;7866;52.280;9.500;2023-02-28T10:45:39;4.83;;;2.80;;
15528;SDS011;7866;52.280;9.500;2023-02-28T10:50:55;4.33;;;2.60;;
15528;SDS011;7866;52.280;9.500;2023-02-28T10:55:59;2.80;;;2.40;;
15528;SDS011;7866;52.280;9.500;2023-02-28T11:01:04;2.30;;;2.10;;
15528;SDS011;7866;52.280;9.500;2023-02-28T11:06:14;2.73;;;2.33;;
15528;SDS011;7866;52.280;9.500;2023-02-28T11:11:18;3.07;;;2.63;;
15528;SDS011;7866;52.280;9.500;2023-02-28T11:16:22;2.50;;;2.27;;
15528;SDS011;7866;52.280;9.500;2023-02-28T11:21:34;6.90;;;2.63;;
15528;SDS011;7866;52.280;9.500;2023-02-28T11:26:41;2.47;;;2.27;;
15528;SDS011;7866;52.280;9.500;2023-02-28T11:31:47;3.33;;;1.90;;
15528;SDS011;7866;52.280;9.500;2023-02-28T11:37:03;1.97;;;1.80;;
15528;SDS011;7866;52.280;9.500;2023-02-28T11:42:13;1.87;;;1.60;;
15528;SDS011;7866;52.280;9.500;2023-02-28T11:47:32;2.30;;;1.77;;
15528;SDS011;7866;52.280;9.500;2023-02-28T11:52:40;1.70;;;1.60;;
15528;SDS011;7866;52.280;9.500;2023-02-28T12:03:24;2.13;;;2.00;;
15528;SDS011;7866;52.280;9.500;2023-02-28T12:08:37;2.53;;;2.03;;
15528;SDS011;7866;52.280;9.500;2023-02-28T12:13:48;1.97;;;1.87;;
15528;SDS011;7866;52.280;9.500;2023-02-28T12:19:09;2.97;;;1.73;;
15528;SDS011;7866;52.280;9.500;2023-02-28T12:24:23;2.47;;;1.93;;
15528;SDS011;7866;52.280;9.500;2023-02-28T12:29:39;2.67;;;2.00;;
15528;SDS011;7866;52.280;9.500;2023-02-28T12:34:47;2.80;;;2.00;;
15528;SDS011;7866;52.280;9.500;2023-02-28T12:39:54;2.90;;;2.07;;
15528;SDS011;7866;52.280;9.500;2023-02-28T12:45:04;2.27;;;1.90;;
15528;SDS011;7866;52.280;9.500;2023-02-28T12:50:13;1.73;;;1.63;;
15528;SDS011;7866;52.280;9.500;2023-02-28T12:55:17;3.13;;;2.03;;
15528;SDS011;7866;52.280;9.500;2023-02-28T13:00:26;2.80;;;2.30;;
15528;SDS011;7866;52.280;9.500;2023-02-28T13:11:25;3.53;;;2.27;;
15528;SDS011;7866;52.280;9.500;2023-02-28T13:16:47;2.53;;;2.30;;
15528;SDS011;7866;52.280;9.500;2023-02-28T13:21:55;4.50;;;2.27;;
15528;SDS011;7866;52.280;9.500;2023-02-28T13:27:17;2.50;;;2.10;;
15528;SDS011;7866;52.280;9.500;2023-02-28T13:32:31;3.03;;;2.07;;
15528;SDS011;7866;52.280;9.500;2023-02-28T13:37:38;2.60;;;2.37;;
15528;SDS011;7866;52.280;9.500;2023-02-28T13:42:46;3.10;;;2.10;;
15528;SDS011;7866;52.280;9.500;2023-02-28T13:47:53;2.17;;;1.83;;
15528;SDS011;7866;52.280;9.500;2023-02-28T13:58:43;2.63;;;2.43;;
15528;SDS011;7866;52.280;9.500;2023-02-28T14:03:57;2.47;;;2.20;;
15528;SDS011;7866;52.280;9.500;2023-02-28T14:09:16;3.87;;;2.17;;
15528;SDS011;7866;52.280;9.500;2023-02-28T14:14:54;3.63;;;2.40;;
15528;SDS011;7866;52.280;9.500;2023-02-28T14:19:59;2.50;;;2.30;;
15528;SDS011;7866;52.280;9.500;2023-02-28T14:25:10;2.33;;;2.13;;
15528;SDS011;7866;52.280;9.500;2023-02-28T14:30:26;2.53;;;2.13;;
15528;SDS011;7866;52.280;9.500;2023-02-28T14:35:49;3.70;;;2.13;;
15528;SDS011;7866;52.280;9.500;2023-02-28T14:41:06;2.50;;;2.30;;
15528;SDS011;7866;52.280;9.500;2023-02-28T14:46:18;4.07;;;2.20;;
15528;SDS011;7866;52.280;9.500;2023-02-28T14:51:21;3.37;;;2.20;;
15528;SDS011;7866;52.280;9.500;2023-02-28T14:56:26;2.47;;;1.90;;
15528;SDS011;7866;52.280;9.500;2023-02-28T15:01:32;2.83;;;2.20;;
15528;SDS011;7866;52.280;9.500;2023-02-28T15:06:34;2.63;;;2.33;;
15528;SDS011;7866;52.280;9.500;2023-02-28T15:11:36;2.50;;;2.30;;
15528;SDS011;7866;52.280;9.500;2023-02-28T15:16:41;2.33;;;2.13;;
15528;SDS011;7866;52.280;9.500;2023-02-28T15:21:47;2.40;;;2.20;;
15528;SDS011;7866;52.280;9.500;2023-02-28T15:26:53;4.33;;;2.10;;
15528;SDS011;7866;52.280;9.500;2023-02-28T15:32:00;3.07;;;2.03;;
15528;SDS011;7866;52.280;9.500;2023-02-28T15:37:06;2.50;;;2.30;;
15528;SDS011;7866;52.280;9.500;2023-02-28T15:42:27;3.47;;;2.07;;
15528;SDS011;7866;52.280;9.500;2023-02-28T15:47:32;5.47;;;2.47;;
15528;SDS011;7866;52.280;9.500;2023-02-28T15:52:39;2.07;;;1.97;;
15528;SDS011;7866;52.280;9.500;2023-02-28T15:57:43;5.73;;;4.57;;
15528;SDS011;7866;52.280;9.500;2023-02-28T16:02:48;2.57;;;2.37;;
15528;SDS011;7866;52.280;9.500;2023-02-28T16:07:50;2.77;;;2.30;;
15528;SDS011;7866;52.280;9.500;2023-02-28T16:12:52;2.30;;;2.10;;
15528;SDS011;7866;52.280;9.500;2023-02-28T16:17:56;3.80;;;2.37;;
15528;SDS011;7866;52.280;9.500;2023-02-28T16:22:58;2.73;;;2.53;;
15528;SDS011;7866;52.280;9.500;2023-02-28T16:28:01;11.03;;;4.93;;
15528;SDS011;7866;52.280;9.500;2023-02-28T16:33:05;3.33;;;2.70;;
15528;SDS011;7866;52.280;9.500;2023-02-28T16:38:06;2.50;;;2.30;;
15528;SDS011;7866;52.280;9.500;2023-02-28T16:43:09;5.00;;;2.30;;
15528;SDS011;7866;52.280;9.500;2023-02-28T16:48:19;9.53;;;6.20;;
15528;SDS011;7866;52.280;9.500;2023-02-28T16:53:20;4.27;;;3.87;;
15528;SDS011;7866;52.280;9.500;2023-02-28T16:58:22;2.30;;;2.20;;
15528;SDS011;7866;52.280;9.500;2023-02-28T17:03:27;3.17;;;2.30;;
15528;SDS011;7866;52.280;9.500;2023-02-28T17:08:29;5.57;;;4.50;;
15528;SDS011;7866;52.280;9.500;2023-02-28T17:13:32;3.50;;;2.47;;
15528;SDS011;7866;52.280;9.500;2023-02-28T17:18:35;1.90;;;1.80;;
15528;SDS011;7866;52.280;9.500;2023-02-28T17:23:39;3.73;;;2.30;;
15528;SDS011;7866;52.280;9.500;2023-02-28T17:28:40;2.53;;;2.33;;
15528;SDS011;7866;52.280;9.500;2023-02-28T17:33:43;3.17;;;2.27;;
15528;SDS011;7866;52.280;9.500;2023-02-28T17:38:45;2.50;;;2.27;;
15528;SDS011;7866;52.280;9.500;2023-02-28T17:43:47;2.63;;;2.40;;
15528;SDS011;7866;52.280;9.500;2023-02-28T17:48:52;2.87;;;2.60;;
15528;SDS011;7866;52.280;9.500;2023-02-28T17:53:54;2.57;;;2.37;;
15528;SDS011;7866;52.280;9.500;2023-02-28T17:58:56;3.43;;;2.60;;
15528;SDS011;7866;52.280;9.500;2023-02-28T18:03:59;4.80;;;2.50;;
15528;SDS011;7866;52.280;9.500;2023-02-28T18:09:01;4.50;;;2.33;;
15528;SDS011;7866;52.280;9.500;2023-02-28T18:14:03;2.33;;;2.10;;
15528;SDS011;7866;52.280;9.500;2023-02-28T18:19:06;2.70;;;2.37;;
15528;SDS011;7866;52.280;9.500;2023-02-28T18:24:09;3.80;;;2.40;;
15528;SDS011;7866;52.280;9.500;2023-02-28T18:29:14;2.73;;;2.40;;
15528;SDS011;7866;52.280;9.500;2023-02-28T18:34:19;3.60;;;3.20;;
15528;SDS011;7866;52.280;9.500;2023-02-28T18:39:21;5.97;;;5.30;;
15528;SDS011;7866;52.280;9.500;2023-02-28T18:44:22;6.33;;;5.00;;
15528;SDS011;7866;52.280;9.500;2023-02-28T18:49:25;3.03;;;2.70;;
15528;SDS011;7866;52.280;9.500;2023-02-28T18:54:27;6.37;;;3.80;;
15528;SDS011;7866;52.280;9.500;2023-02-28T18:59:29;3.33;;;3.00;;
15528;SDS011;7866;52.280;9.500;2023-02-28T19:04:32;3.80;;;3.37;;
15528;SDS011;7866;52.280;9.500;2023-02-28T19:09:34;4.87;;;2.90;;
15528;SDS011;7866;52.280;9.500;2023-02-28T19:14:35;3.90;;;2.80;;
15528;SDS011;7866;52.280;9.500;2023-02-28T19:19:38;3.17;;;2.87;;
15528;SDS011;7866;52.280;9.500;2023-02-28T19:24:40;4.47;;;2.60;;
15528;SDS011;7866;52.280;9.500;2023-02-28T19:29:42;2.87;;;2.50;;
15528;SDS011;7866;52.280;9.500;2023-02-28T19:34:45;2.93;;;2.60;;
15528;SDS011;7866;52.280;9.500;2023-02-28T19:39:47;2.87;;;2.63;;
15528;SDS011;7866;52.280;9.500;2023-02-28T19:44:48;2.70;;;2.50;;
15528;SDS011;7866;52.280;9.500;2023-02-28T19:49:51;3.00;;;2.37;;
15528;SDS011;7866;52.280;9.500;2023-02-28T19:54:53;2.80;;;2.50;;
15528;SDS011;7866;52.280;9.500;2023-02-28T19:59:55;2.70;;;2.50;;
15528;SDS011;7866;52.280;9.500;2023-02-28T20:04:58;2.60;;;2.40;;
15528;SDS011;7866;52.280;9.500;2023-02-28T20:10:00;2.97;;;2.77;;
15528;SDS011;7866;52.280;9.500;2023-02-28T20:15:02;2.90;;;2.60;;
15528;SDS011;7866;52.280;9.500;2023-02-28T20:20:06;2.57;;;2.37;;
15528;SDS011;7866;52.280;9.500;2023-02-28T20:25:10;3.53;;;2.40;;
15528;SDS011;7866;52.280;9.500;2023-02-28T20:30:12;3.77;;;2.90;;
15528;SDS011;7866;52.280;9.500;2023-02-28T20:35:15;2.70;;;2.50;;
15528;SDS011;7866;52.280;9.500;2023-02-28T20:40:17;3.00;;;2.80;;
15528;SDS011;7866;52.280;9.500;2023-02-28T20:45:19;3.23;;;2.93;;
15528;SDS011;7866;52.280;9.500;2023-02-28T20:50:22;3.87;;;2.83;;
15528;SDS011;7866;52.280;9.500;2023-02-28T20:55:24;3.97;;;3.40;;
15528;SDS011;7866;52.280;9.500;2023-02-28T21:00:25;3.00;;;2.80;;
15528;SDS011;7866;52.280;9.500;2023-02-28T21:05:28;3.43;;;3.10;;
15528;SDS011;7866;52.280;9.500;2023-02-28T21:10:30;3.47;;;3.17;;
15528;SDS011;7866;52.280;9.500;2023-02-28T21:15:35;3.30;;;3.00;;
15528;SDS011;7866;52.280;9.500;2023-02-28T21:20:39;3.20;;;2.90;;
15528;SDS011;7866;52.280;9.500;2023-02-28T21:25:41;3.53;;;3.23;;
15528;SDS011;7866;52.280;9.500;2023-02-28T21:30:42;4.33;;;3.10;;
15528;SDS011;7866;52.280;9.500;2023-02-28T21:35:45;3.40;;;3.10;;
15528;SDS011;7866;52.280;9.500;2023-02-28T21:40:47;4.53;;;3.40;;
15528;SDS011;7866;52.280;9.500;2023-02-28T21:45:50;3.23;;;3.03;;
15528;SDS011;7866;52.280;9.500;2023-02-28T21:56:01;3.87;;;3.10;;
15528;SDS011;7866;52.280;9.500;2023-02-28T22:01:05;2.97;;;2.70;;
15528;SDS011;7866;52.280;9.500;2023-02-28T22:06:10;3.50;;;3.17;;
15528;SDS011;7866;52.280;9.500;2023-02-28T22:11:14;3.53;;;3.23;;
15528;SDS011;7866;52.280;9.500;2023-02-28T22:16:17;3.27;;;2.87;;
15528;SDS011;7866;52.280;9.500;2023-02-28T22:21:22;3.23;;;2.93;;
15528;SDS011;7866;52.280;9.500;2023-02-28T22:26:23;3.57;;;3.17;;
15528;SDS011;7866;52.280;9.500;2023-02-28T22:31:26;3.50;;;3.17;;
15528;SDS011;7866;52.280;9.500;2023-02-28T22:36:31;3.63;;;3.17;;
15528;SDS011;7866;52.280;9.500;2023-02-28T22:41:33;3.07;;;2.87;;
15528;SDS011;7866;52.280;9.500;2023-02-28T22:46:35;3.00;;;2.80;;
15528;SDS011;7866;52.280;9.500;2023-02-28T22:51:38;3.53;;;3.10;;
15528;SDS011;7866;52.280;9.500;2023-02-28T22:56:40;3.97;;;3.10;;
15528;SDS011;7866;52.280;9.500;2023-02-28T23:01:41;3.03;;;2.73;;
15528;SDS011;7866;52.280;9.500;2023-02-28T23:06:45;3.00;;;2.70;;
15528;SDS011;7866;52.280;9.500;2023-02-28T23:11:48;3.13;;;2.80;;
15528;SDS011;7866;52.280;9.500;2023-02-28T23:16:52;3.13;;;2.77;;
15528;SDS011;7866;52.280;9.500;2023-02-28T23:21:56;2.60;;;2.40;;
15528;SDS011;7866;52.280;9.500;2023-02-28T23:27:00;3.30;;;2.63;;
15528;SDS011;7866;52.280;9.500;2023-02-28T23:32:03;2.73;;;2.53;;
15528;SDS011;7866;52.280;9.500;2023-02-28T23:37:06;3.83;;;2.80;;
15528;SDS011;7866;52.280;9.500;2023-02-28T23:42:08;2.77;;;2.50;;
15528;SDS011;7866;52.280;9.500;2023-02-28T23:47:10;4.23;;;2.60;;
15528;SDS011;7866;52.280;9.500;2023-02-28T23:52:14;2.57;;;2.20;;
15528;SDS011;7866;52.280;9.500;2023-02-28T23:57:16;2.77;;;2.47;;
